Time;durP1;ratioP1;P1;durP2;ratioP2;P2;SDS_P1;SDS_P2;PMS_P1;PMS_P2;Temp;Humidity;BMP_temperature;BMP_pressure;BME280_temperature;BME280_humidity;BME280_pressure;Samples;Min_cycle;Max_cycle;Signal;HPM_P1;HPM_P2
2022/05/29 00:02:11;;;;;;;3.15;2.03;;;;;;;;;;5042470;28;24441;-44
2022/05/29 00:04:39;;;;;;;3.72;2.20;;;;;;;;;;5041830;28;25119;-44
2022/05/29 00:07:04;;;;;;;2.55;2.10;;;;;;;;;;5041232;28;24455;-44
2022/05/29 00:09:31;;;;;;;5.10;2.90;;;;;;;;;;5043495;28;24568;-44
2022/05/29 00:11:57;;;;;;;4.05;2.20;;;;;;;;;;5042711;28;24474;-45
2022/05/29 00:14:22;;;;;;;2.87;2.30;;;;;;;;;;5040691;28;24437;-44
2022/05/29 00:16:47;;;;;;;2.60;2.40;;;;;;;;;;5034926;28;24442;-45
2022/05/29 00:19:13;;;;;;;4.20;2.40;;;;;;;;;;5042263;28;25026;-44
2022/05/29 00:21:38;;;;;;;3.00;2.20;;;;;;;;;;5041197;28;24518;-45
2022/05/29 00:24:06;;;;;;;5.50;2.40;;;;;;;;;;5041085;28;24457;-44
2022/05/29 00:26:31;;;;;;;4.30;2.50;;;;;;;;;;5040272;28;24435;-44
2022/05/29 00:28:57;;;;;;;4.20;2.30;;;;;;;;;;5044766;28;24442;-44
2022/05/29 00:31:22;;;;;;;4.43;2.40;;;;;;;;;;5042695;28;24425;-45
2022/05/29 00:33:47;;;;;;;5.72;2.67;;;;;;;;;;5041259;28;24435;-44
2022/05/29 00:36:14;;;;;;;2.97;2.15;;;;;;;;;;5041281;28;25062;-45
2022/05/29 00:38:41;;;;;;;2.70;2.10;;;;;;;;;;5042493;28;24429;-45
2022/05/29 00:41:17;;;;;;;3.40;2.25;;;;;;;;;;5039903;28;24426;-45
2022/05/29 00:44:01;;;;;;;4.50;2.40;;;;;;;;;;5041816;28;24446;-45
2022/05/29 00:46:29;;;;;;;2.75;2.20;;;;;;;;;;5039882;28;24434;-44
2022/05/29 00:48:56;;;;;;;4.25;2.65;;;;;;;;;;5041508;28;21342;-44
2022/05/29 00:51:23;;;;;;;3.60;2.40;;;;;;;;;;5026753;28;24457;-44
2022/05/29 00:53:48;;;;;;;3.53;2.30;;;;;;;;;;5042681;28;24420;-44
2022/05/29 00:56:13;;;;;;;4.15;2.50;;;;;;;;;;5043761;28;24435;-44
2022/05/29 00:58:38;;;;;;;3.93;2.30;;;;;;;;;;5041508;28;24991;-44
2022/05/29 01:01:03;;;;;;;3.20;2.20;;;;;;;;;;5045811;28;24549;-44
2022/05/29 01:03:29;;;;;;;3.30;2.40;;;;;;;;;;5036747;28;24538;-44
2022/05/29 01:05:54;;;;;;;5.50;2.40;;;;;;;;;;5041502;28;24426;-44
2022/05/29 01:08:21;;;;;;;3.70;2.40;;;;;;;;;;5040561;28;24954;-44
2022/05/29 01:10:49;;;;;;;4.90;2.50;;;;;;;;;;5040002;28;25041;-44
2022/05/29 01:13:14;;;;;;;2.75;2.20;;;;;;;;;;5038061;28;24443;-45
2022/05/29 01:15:45;;;;;;;5.38;2.40;;;;;;;;;;5040071;28;24426;-44
2022/05/29 01:18:13;;;;;;;4.30;2.50;;;;;;;;;;5041677;28;24445;-44
2022/05/29 01:20:57;;;;;;;4.88;2.67;;;;;;;;;;5039759;28;24972;-44
2022/05/29 01:23:28;;;;;;;3.47;2.50;;;;;;;;;;5040043;28;24569;-46
2022/05/29 01:26:00;;;;;;;3.97;2.75;;;;;;;;;;5042466;28;24427;-44
2022/05/29 01:28:30;;;;;;;3.50;2.30;;;;;;;;;;5041576;28;24601;-45
2022/05/29 01:31:03;;;;;;;2.60;2.40;;;;;;;;;;5042146;28;25089;-44
2022/05/29 01:33:28;;;;;;;3.08;2.50;;;;;;;;;;5038841;28;24969;-44
2022/05/29 01:35:56;;;;;;;3.90;2.30;;;;;;;;;;5041955;28;25166;-45
2022/05/29 01:38:35;;;;;;;4.10;2.65;;;;;;;;;;5039315;28;24450;-44
2022/05/29 01:41:03;;;;;;;3.88;2.40;;;;;;;;;;5039504;28;24445;-44
2022/05/29 01:43:37;;;;;;;3.72;2.70;;;;;;;;;;5041295;28;24485;-45
2022/05/29 01:46:02;;;;;;;3.53;2.67;;;;;;;;;;5039142;28;24541;-45
2022/05/29 01:48:46;;;;;;;3.67;2.40;;;;;;;;;;5039349;28;24439;-44
2022/05/29 01:51:13;;;;;;;5.97;2.67;;;;;;;;;;5038983;28;24462;-44
2022/05/29 01:53:40;;;;;;;5.10;2.70;;;;;;;;;;5039995;28;24442;-45
2022/05/29 01:56:10;;;;;;;5.37;2.83;;;;;;;;;;5040188;28;24518;-44
2022/05/29 01:58:37;;;;;;;4.07;2.90;;;;;;;;;;5039295;28;25234;-44
2022/05/29 02:01:03;;;;;;;3.38;2.40;;;;;;;;;;5041738;28;24496;-44
2022/05/29 02:03:34;;;;;;;4.93;2.53;;;;;;;;;;5041088;28;24519;-44
2022/05/29 02:06:04;;;;;;;3.35;2.50;;;;;;;;;;5040288;28;24438;-45
2022/05/29 02:08:46;;;;;;;4.10;2.80;;;;;;;;;;5038195;28;24427;-44
2022/05/29 02:11:13;;;;;;;4.60;2.60;;;;;;;;;;5041480;28;24423;-45
2022/05/29 02:13:46;;;;;;;3.85;2.63;;;;;;;;;;5038149;28;24441;-44
2022/05/29 02:16:13;;;;;;;3.70;2.60;;;;;;;;;;5040402;28;24518;-44
2022/05/29 02:18:50;;;;;;;4.18;2.45;;;;;;;;;;5040558;28;24438;-45
2022/05/29 02:21:25;;;;;;;3.65;2.60;;;;;;;;;;5040776;28;24868;-44
2022/05/29 02:23:52;;;;;;;3.05;2.47;;;;;;;;;;5040992;28;24968;-44
2022/05/29 02:26:20;;;;;;;3.72;2.50;;;;;;;;;;5044247;28;24531;-44
2022/05/29 02:28:47;;;;;;;3.90;2.40;;;;;;;;;;5043848;28;24426;-44
2022/05/29 02:31:12;;;;;;;3.30;2.30;;;;;;;;;;5043982;28;27269;-45
2022/05/29 02:33:44;;;;;;;4.88;2.40;;;;;;;;;;5044725;28;24446;-45
2022/05/29 02:36:23;;;;;;;3.80;2.90;;;;;;;;;;5043679;28;24543;-45
2022/05/29 02:39:00;;;;;;;4.95;2.70;;;;;;;;;;5038813;28;24439;-45
2022/05/29 02:41:44;;;;;;;5.03;2.40;;;;;;;;;;5042499;28;24462;-45
2022/05/29 02:44:17;;;;;;;3.55;2.50;;;;;;;;;;5044665;28;24434;-45
2022/05/29 02:46:55;;;;;;;5.80;2.57;;;;;;;;;;5042243;28;25224;-45
2022/05/29 02:49:36;;;;;;;3.42;2.50;;;;;;;;;;5043782;28;24496;-45
2022/05/29 02:52:04;;;;;;;4.78;2.70;;;;;;;;;;5040980;28;24419;-45
2022/05/29 02:54:31;;;;;;;5.43;2.90;;;;;;;;;;5044414;28;25043;-45
2022/05/29 02:56:57;;;;;;;3.33;2.40;;;;;;;;;;5043646;28;24446;-45
2022/05/29 02:59:24;;;;;;;4.47;2.72;;;;;;;;;;5041592;28;24829;-45
2022/05/29 03:02:00;;;;;;;2.90;2.50;;;;;;;;;;5045494;28;24438;-45
2022/05/29 03:04:48;;;;;;;4.68;2.60;;;;;;;;;;5043203;28;24430;-45
2022/05/29 03:07:32;;;;;;;4.28;2.47;;;;;;;;;;5042270;28;24534;-45
2022/05/29 03:10:00;;;;;;;4.78;2.50;;;;;;;;;;5045116;28;24430;-44
2022/05/29 03:12:26;;;;;;;4.40;2.50;;;;;;;;;;5041855;28;28093;-44
2022/05/29 03:15:11;;;;;;;3.00;2.20;;;;;;;;;;5041333;28;25018;-44
2022/05/29 03:17:39;;;;;;;3.80;2.70;;;;;;;;;;5040593;28;24457;-45
2022/05/29 03:20:08;;;;;;;3.10;2.30;;;;;;;;;;5043232;28;24438;-45
2022/05/29 03:22:48;;;;;;;4.40;2.60;;;;;;;;;;5041322;28;24531;-45
2022/05/29 03:25:18;;;;;;;4.38;2.60;;;;;;;;;;5033578;28;24430;-45
2022/05/29 03:27:45;;;;;;;3.70;2.90;;;;;;;;;;5042941;28;24430;-44
2022/05/29 03:30:14;;;;;;;4.00;2.90;;;;;;;;;;5036846;28;24430;-45
2022/05/29 03:32:40;;;;;;;3.63;2.53;;;;;;;;;;5043159;28;24496;-44
2022/05/29 03:35:25;;;;;;;3.13;2.50;;;;;;;;;;5040845;28;24988;-45
2022/05/29 03:37:51;;;;;;;4.00;2.47;;;;;;;;;;5043468;28;24984;-44
2022/05/29 03:40:17;;;;;;;3.20;2.17;;;;;;;;;;5043485;28;24430;-44
2022/05/29 03:42:42;;;;;;;3.35;2.20;;;;;;;;;;5042514;28;26285;-44
2022/05/29 03:45:08;;;;;;;4.78;2.15;;;;;;;;;;5041925;28;24415;-45
2022/05/29 03:47:33;;;;;;;2.28;1.95;;;;;;;;;;5043090;28;24500;-45
2022/05/29 03:49:58;;;;;;;2.73;1.83;;;;;;;;;;5041410;28;24492;-45
2022/05/29 03:52:23;;;;;;;3.10;1.90;;;;;;;;;;5041182;28;24431;-46
2022/05/29 03:54:51;;;;;;;2.00;1.80;;;;;;;;;;5041250;28;24435;-45
2022/05/29 03:57:16;;;;;;;4.37;2.27;;;;;;;;;;5041794;28;24478;-45
2022/05/29 03:59:41;;;;;;;2.70;2.00;;;;;;;;;;5041266;28;24433;-45
2022/05/29 04:02:06;;;;;;;4.55;2.30;;;;;;;;;;5045361;28;24441;-45
2022/05/29 04:04:32;;;;;;;3.40;2.00;;;;;;;;;;5040230;28;25003;-45
2022/05/29 04:06:57;;;;;;;2.93;1.87;;;;;;;;;;5042060;28;25085;-45
2022/05/29 04:12:07;;;;;;;4.20;1.90;;;;;;;;;;5040883;28;24410;-45
2022/05/29 04:14:36;;;;;;;2.50;1.90;;;;;;;;;;5040045;28;24536;-45
2022/05/29 04:17:01;;;;;;;2.97;1.80;;;;;;;;;;5041004;28;26029;-45
2022/05/29 04:19:27;;;;;;;4.40;2.10;;;;;;;;;;5041176;28;24434;-47
2022/05/29 04:21:52;;;;;;;5.40;2.50;;;;;;;;;;5042740;28;24855;-45
2022/05/29 04:24:19;;;;;;;4.43;2.20;;;;;;;;;;5041877;28;24428;-44
2022/05/29 04:26:44;;;;;;;3.88;2.60;;;;;;;;;;5040215;28;24530;-44
2022/05/29 04:29:09;;;;;;;2.80;2.20;;;;;;;;;;5040009;28;24480;-44
2022/05/29 04:31:34;;;;;;;3.28;2.30;;;;;;;;;;5043039;28;24466;-44
2022/05/29 04:34:00;;;;;;;5.20;2.40;;;;;;;;;;5040667;28;24984;-44
2022/05/29 04:36:25;;;;;;;3.35;2.10;;;;;;;;;;5040724;28;24484;-45
2022/05/29 04:38:51;;;;;;;3.00;2.10;;;;;;;;;;5040920;28;24433;-44
2022/05/29 04:41:19;;;;;;;2.40;2.20;;;;;;;;;;5041024;28;25303;-45
2022/05/29 04:43:44;;;;;;;2.22;1.90;;;;;;;;;;5062485;28;24435;-45
2022/05/29 04:46:09;;;;;;;2.95;2.03;;;;;;;;;;5064536;28;24422;-45
2022/05/29 04:48:34;;;;;;;4.60;2.30;;;;;;;;;;5065325;28;25005;-45
2022/05/29 04:51:01;;;;;;;4.47;2.20;;;;;;;;;;5064727;28;24534;-44
2022/05/29 04:53:27;;;;;;;2.50;2.00;;;;;;;;;;5062431;28;24425;-45
2022/05/29 04:55:53;;;;;;;2.95;1.88;;;;;;;;;;5053117;28;24546;-45
2022/05/29 04:58:19;;;;;;;2.80;2.20;;;;;;;;;;5062870;28;24985;-45
2022/05/29 05:00:45;;;;;;;2.75;1.70;;;;;;;;;;5064337;28;24529;-45
2022/05/29 05:03:10;;;;;;;2.60;1.90;;;;;;;;;;5065518;28;24430;-44
2022/05/29 05:05:35;;;;;;;2.83;2.10;;;;;;;;;;5058965;28;24493;-45
2022/05/29 05:08:00;;;;;;;2.53;2.00;;;;;;;;;;5046465;28;26520;-45
2022/05/29 05:10:25;;;;;;;3.10;1.60;;;;;;;;;;5053535;28;24429;-45
2022/05/29 05:12:51;;;;;;;4.00;2.10;;;;;;;;;;5061304;28;24436;-45
2022/05/29 05:15:16;;;;;;;2.10;1.80;;;;;;;;;;5061382;28;25379;-45
2022/05/29 05:17:42;;;;;;;3.22;2.10;;;;;;;;;;5062655;28;24433;-45
2022/05/29 05:20:08;;;;;;;2.73;1.90;;;;;;;;;;5061153;28;24780;-45
2022/05/29 05:22:33;;;;;;;2.85;1.90;;;;;;;;;;5062691;28;24477;-45
2022/05/29 05:24:58;;;;;;;3.83;2.00;;;;;;;;;;5060915;28;24580;-45
2022/05/29 05:27:24;;;;;;;2.47;1.63;;;;;;;;;;5063561;28;24453;-45
2022/05/29 05:29:49;;;;;;;3.27;2.10;;;;;;;;;;5064469;28;24490;-45
2022/05/29 05:32:14;;;;;;;4.00;1.80;;;;;;;;;;5065648;28;24483;-45
2022/05/29 05:34:41;;;;;;;3.53;1.92;;;;;;;;;;5052504;28;24440;-45
2022/05/29 05:37:07;;;;;;;4.10;2.30;;;;;;;;;;5056343;28;24465;-45
2022/05/29 05:39:32;;;;;;;3.30;1.50;;;;;;;;;;5061037;28;24520;-44
2022/05/29 05:41:57;;;;;;;1.80;1.50;;;;;;;;;;5050132;28;24450;-45
2022/05/29 05:44:22;;;;;;;3.53;1.50;;;;;;;;;;5041181;28;26404;-45
2022/05/29 05:46:49;;;;;;;2.10;1.40;;;;;;;;;;5040130;28;24420;-44
2022/05/29 05:49:15;;;;;;;2.43;1.50;;;;;;;;;;5038304;28;25287;-50
2022/05/29 05:51:40;;;;;;;2.20;1.33;;;;;;;;;;5038728;28;24430;-45
2022/05/29 05:54:05;;;;;;;2.40;1.60;;;;;;;;;;5038251;28;24447;-44
2022/05/29 05:56:30;;;;;;;2.10;1.50;;;;;;;;;;5042118;28;24476;-45
2022/05/29 05:58:56;;;;;;;2.30;1.60;;;;;;;;;;5042488;28;28723;-44
2022/05/29 06:01:21;;;;;;;3.60;2.27;;;;;;;;;;5041975;28;24419;-45
2022/05/29 06:03:46;;;;;;;1.60;1.37;;;;;;;;;;5039616;28;24773;-45
2022/05/29 06:06:11;;;;;;;2.63;1.60;;;;;;;;;;5040110;28;24458;-44
2022/05/29 06:08:36;;;;;;;3.80;1.60;;;;;;;;;;5041137;28;24433;-44
2022/05/29 06:11:02;;;;;;;5.53;1.75;;;;;;;;;;5040215;28;24518;-45
2022/05/29 06:13:28;;;;;;;3.97;1.80;;;;;;;;;;5037686;28;25016;-44
2022/05/29 06:15:53;;;;;;;2.10;1.45;;;;;;;;;;5038793;28;24672;-45
2022/05/29 06:18:18;;;;;;;3.10;1.75;;;;;;;;;;5037861;28;24872;-44
2022/05/29 06:20:44;;;;;;;2.93;1.73;;;;;;;;;;5035345;28;24550;-45
2022/05/29 06:23:10;;;;;;;3.23;1.90;;;;;;;;;;5027503;28;24557;-45
2022/05/29 06:25:35;;;;;;;2.60;1.52;;;;;;;;;;5035114;28;25000;-45
2022/05/29 06:28:03;;;;;;;4.27;1.60;;;;;;;;;;5037642;28;24427;-45
2022/05/29 06:30:28;;;;;;;3.75;1.80;;;;;;;;;;5036951;28;24893;-45
2022/05/29 06:32:53;;;;;;;1.85;1.60;;;;;;;;;;5041536;28;24944;-45
2022/05/29 06:35:19;;;;;;;3.50;2.00;;;;;;;;;;5036878;28;24477;-45
2022/05/29 06:37:44;;;;;;;2.53;1.63;;;;;;;;;;5037266;28;24423;-44
2022/05/29 06:40:10;;;;;;;2.60;1.40;;;;;;;;;;5036350;28;24968;-45
2022/05/29 06:42:35;;;;;;;2.53;1.40;;;;;;;;;;5041360;28;24566;-45
2022/05/29 06:45:01;;;;;;;1.60;1.40;;;;;;;;;;5058100;28;24468;-45
2022/05/29 06:47:26;;;;;;;3.03;1.65;;;;;;;;;;5057680;28;24582;-45
2022/05/29 06:49:51;;;;;;;2.70;1.70;;;;;;;;;;5057031;28;24485;-45
2022/05/29 06:52:17;;;;;;;3.70;1.70;;;;;;;;;;5057364;28;24807;-44
2022/05/29 06:54:42;;;;;;;2.38;1.70;;;;;;;;;;5057933;28;25018;-45
2022/05/29 06:57:08;;;;;;;3.43;1.77;;;;;;;;;;5056348;28;28068;-44
2022/05/29 07:06:59;;;;;;;3.10;1.60;;;;;;;;;;5056273;28;24446;-44
2022/05/29 07:08:01;;;;;;;2.50;1.30;;;;;;;;;;5061090;28;24779;-45
2022/05/29 07:10:27;;;;;;;3.78;1.40;;;;;;;;;;5057575;28;24422;-45
2022/05/29 07:12:52;;;;;;;3.00;1.50;;;;;;;;;;5064114;28;24437;-45
2022/05/29 07:15:18;;;;;;;3.08;1.50;;;;;;;;;;5060860;28;24470;-45
2022/05/29 07:17:44;;;;;;;2.33;1.30;;;;;;;;;;5063649;28;24440;-45
2022/05/29 07:20:10;;;;;;;4.37;1.50;;;;;;;;;;5064073;28;24431;-45
2022/05/29 07:22:35;;;;;;;2.83;1.50;;;;;;;;;;5064841;28;24547;-45
2022/05/29 07:25:01;;;;;;;3.58;1.60;;;;;;;;;;5065119;28;24519;-45
2022/05/29 07:27:26;;;;;;;2.50;1.33;;;;;;;;;;5063171;28;24434;-45
2022/05/29 07:29:51;;;;;;;3.15;1.63;;;;;;;;;;5063962;28;24421;-45
2022/05/29 07:32:16;;;;;;;2.97;1.60;;;;;;;;;;5064208;28;24426;-45
2022/05/29 07:34:43;;;;;;;2.53;1.50;;;;;;;;;;5063785;28;25084;-46
2022/05/29 07:37:09;;;;;;;2.30;1.25;;;;;;;;;;5064475;28;24441;-46
2022/05/29 07:39:36;;;;;;;3.03;1.15;;;;;;;;;;5062465;28;24466;-46
2022/05/29 07:44:47;;;;;;;2.80;1.60;;;;;;;;;;4997185;28;25255;-46
2022/05/29 07:47:12;;;;;;;3.70;1.53;;;;;;;;;;5043879;28;24430;-46
2022/05/29 07:49:38;;;;;;;2.20;1.70;;;;;;;;;;5046358;28;24526;-45
2022/05/29 07:52:04;;;;;;;2.20;1.42;;;;;;;;;;5042267;28;24419;-46
2022/05/29 07:54:29;;;;;;;3.20;1.50;;;;;;;;;;5036025;28;27218;-46
2022/05/29 07:56:54;;;;;;;3.80;1.70;;;;;;;;;;5043784;28;25145;-47
2022/05/29 07:59:20;;;;;;;3.25;1.88;;;;;;;;;;5044311;28;25306;-47
2022/05/29 08:01:45;;;;;;;3.10;1.50;;;;;;;;;;5043545;28;24953;-46
2022/05/29 08:04:10;;;;;;;4.43;1.58;;;;;;;;;;5045742;28;24430;-46
2022/05/29 08:06:35;;;;;;;2.50;1.33;;;;;;;;;;5043565;28;24419;-47
2022/05/29 08:09:00;;;;;;;3.00;1.50;;;;;;;;;;5042801;28;24421;-44
2022/05/29 08:11:26;;;;;;;3.40;1.30;;;;;;;;;;5042208;28;24419;-46
2022/05/29 08:13:51;;;;;;;3.60;1.40;;;;;;;;;;5043376;28;24458;-46
2022/05/29 08:16:17;;;;;;;1.95;1.30;;;;;;;;;;5042034;28;24716;-46
2022/05/29 08:18:42;;;;;;;2.40;1.43;;;;;;;;;;5043266;28;24833;-45
2022/05/29 08:21:07;;;;;;;3.43;1.33;;;;;;;;;;5042186;28;24516;-46
2022/05/29 08:23:32;;;;;;;3.20;1.20;;;;;;;;;;5042702;28;24556;-44
2022/05/29 08:30:37;;;;;;;3.15;1.52;;;;;;;;;;5042593;28;24517;-44
2022/05/29 08:31:26;;;;;;;3.67;1.50;;;;;;;;;;5042436;28;24427;-44
2022/05/29 08:33:51;;;;;;;1.50;1.03;;;;;;;;;;5043613;28;24429;-44
2022/05/29 08:36:19;;;;;;;2.45;1.40;;;;;;;;;;5025882;28;24427;-44
2022/05/29 08:38:45;;;;;;;3.03;1.40;;;;;;;;;;5041946;28;24461;-45
2022/05/29 08:41:13;;;;;;;2.92;1.50;;;;;;;;;;5042624;28;24446;-44
2022/05/29 08:43:55;;;;;;;2.03;1.30;;;;;;;;;;5042647;28;24447;-45
2022/05/29 08:46:26;;;;;;;3.15;2.35;;;;;;;;;;5041395;28;24519;-44
2022/05/29 08:48:52;;;;;;;3.28;1.80;;;;;;;;;;5042220;28;24995;-44
2022/05/29 08:51:28;;;;;;;2.60;1.63;;;;;;;;;;5042093;28;25213;-44
2022/05/29 08:54:12;;;;;;;3.50;1.50;;;;;;;;;;5041342;28;24454;-44
2022/05/29 08:56:56;;;;;;;2.38;1.20;;;;;;;;;;5041059;28;24438;-44
2022/05/29 08:59:42;;;;;;;3.67;1.80;;;;;;;;;;5043312;28;24439;-44
2022/05/29 09:02:18;;;;;;;2.92;1.50;;;;;;;;;;5041890;28;24427;-44
2022/05/29 09:04:45;;;;;;;3.72;1.40;;;;;;;;;;5042342;28;24454;-44
2022/05/29 09:07:11;;;;;;;3.05;1.50;;;;;;;;;;5040778;28;24455;-44
2022/05/29 09:09:55;;;;;;;2.30;1.30;;;;;;;;;;5042836;28;24547;-44
2022/05/29 09:12:26;;;;;;;4.05;1.70;;;;;;;;;;5040661;28;24485;-45
2022/05/29 09:15:12;;;;;;;2.53;1.40;;;;;;;;;;5040451;28;24426;-44
2022/05/29 09:17:41;;;;;;;2.90;1.40;;;;;;;;;;5037829;28;24419;-44
2022/05/29 09:20:11;;;;;;;3.90;1.60;;;;;;;;;;5040024;28;24481;-44
2022/05/29 09:22:41;;;;;;;2.22;1.50;;;;;;;;;;5041414;28;28394;-44
2022/05/29 09:25:14;;;;;;;2.80;1.40;;;;;;;;;;5039633;28;24798;-44
2022/05/29 09:27:44;;;;;;;5.35;1.60;;;;;;;;;;5041337;28;24978;-44
2022/05/29 09:30:10;;;;;;;3.35;1.60;;;;;;;;;;5040784;28;24442;-44
2022/05/29 09:32:40;;;;;;;2.72;1.50;;;;;;;;;;5041937;28;24495;-44
2022/05/29 09:35:10;;;;;;;3.08;1.60;;;;;;;;;;5041517;28;25049;-44
2022/05/29 09:37:38;;;;;;;2.38;1.33;;;;;;;;;;5040855;28;24431;-44
2022/05/29 09:40:04;;;;;;;3.10;1.30;;;;;;;;;;5040287;28;24486;-44
2022/05/29 09:42:33;;;;;;;2.80;1.40;;;;;;;;;;5040672;28;24756;-43
2022/05/29 09:45:12;;;;;;;3.40;1.38;;;;;;;;;;5041869;28;24612;-44
2022/05/29 09:50:24;;;;;;;2.80;1.48;;;;;;;;;;5040120;28;24461;-45
2022/05/29 09:52:50;;;;;;;3.13;1.10;;;;;;;;;;5040289;28;25024;-45
2022/05/29 09:55:21;;;;;;;1.57;1.10;;;;;;;;;;5040004;28;24431;-45
2022/05/29 09:57:49;;;;;;;2.58;1.40;;;;;;;;;;5040786;28;25064;-45
2022/05/29 10:00:23;;;;;;;2.10;1.30;;;;;;;;;;5040337;28;24473;-45
2022/05/29 10:02:51;;;;;;;1.80;1.13;;;;;;;;;;5042731;28;25244;-46
2022/05/29 10:05:29;;;;;;;5.70;1.90;;;;;;;;;;5037291;28;24588;-45
2022/05/29 10:07:59;;;;;;;2.45;1.40;;;;;;;;;;5036754;28;24422;-45
2022/05/29 10:10:24;;;;;;;2.83;1.30;;;;;;;;;;5036151;28;24423;-45
2022/05/29 10:12:49;;;;;;;2.25;1.30;;;;;;;;;;5035515;28;24427;-45
2022/05/29 10:15:32;;;;;;;3.67;1.60;;;;;;;;;;5036289;28;24446;-45
2022/05/29 10:18:00;;;;;;;3.33;1.25;;;;;;;;;;5038200;28;24418;-45
2022/05/29 10:20:36;;;;;;;2.25;1.40;;;;;;;;;;5034879;28;24427;-45
2022/05/29 10:23:12;;;;;;;2.63;1.38;;;;;;;;;;5032313;28;24493;-45
2022/05/29 10:25:38;;;;;;;2.50;1.40;;;;;;;;;;5033699;28;24430;-45
2022/05/29 10:28:11;;;;;;;3.10;1.40;;;;;;;;;;5035019;28;24441;-45
2022/05/29 10:30:56;;;;;;;2.80;1.48;;;;;;;;;;5036634;28;24612;-45
2022/05/29 10:33:23;;;;;;;2.97;1.35;;;;;;;;;;5013939;28;24461;-45
2022/05/29 10:35:49;;;;;;;2.10;1.50;;;;;;;;;;5033748;28;25058;-44
2022/05/29 10:38:22;;;;;;;1.92;1.38;;;;;;;;;;5034798;28;24523;-45
2022/05/29 10:40:49;;;;;;;2.90;1.40;;;;;;;;;;5037062;28;24457;-45
2022/05/29 10:43:33;;;;;;;2.67;1.40;;;;;;;;;;5035940;28;25012;-45
2022/05/29 10:46:03;;;;;;;1.63;1.40;;;;;;;;;;5034819;28;24989;-45
2022/05/29 10:48:37;;;;;;;2.40;1.20;;;;;;;;;;5041095;28;25743;-45
2022/05/29 10:51:21;;;;;;;2.10;1.40;;;;;;;;;;5036199;28;24734;-43
2022/05/29 10:53:59;;;;;;;1.80;1.40;;;;;;;;;;5040195;28;24484;-44
2022/05/29 10:56:36;;;;;;;2.80;1.20;;;;;;;;;;5040810;28;24430;-43
2022/05/29 10:59:10;;;;;;;1.80;1.30;;;;;;;;;;5040734;28;24599;-45
2022/05/29 11:04:56;;;;;;;2.20;1.45;;;;;;;;;;5040524;28;24434;-45
2022/05/29 11:07:40;;;;;;;2.85;1.30;;;;;;;;;;5038794;28;24434;-46
2022/05/29 11:10:37;;;;;;;2.15;1.15;;;;;;;;;;5038839;28;24484;-46
2022/05/29 11:13:16;;;;;;;2.60;1.20;;;;;;;;;;4999875;28;24496;-43
2022/05/29 11:15:48;;;;;;;2.45;1.10;;;;;;;;;;5036895;28;24423;-43
2022/05/29 11:18:16;;;;;;;1.63;1.30;;;;;;;;;;5037715;28;25024;-45
2022/05/29 11:20:45;;;;;;;2.80;1.40;;;;;;;;;;5040503;28;24434;-44
2022/05/29 11:23:21;;;;;;;2.03;1.00;;;;;;;;;;5036657;28;24427;-44
2022/05/29 11:25:46;;;;;;;2.22;1.20;;;;;;;;;;5038324;28;24489;-47
2022/05/29 11:28:12;;;;;;;2.22;1.40;;;;;;;;;;5037645;28;24520;-44
2022/05/29 11:30:49;;;;;;;3.05;1.30;;;;;;;;;;5038590;28;24447;-44
2022/05/29 11:33:23;;;;;;;2.53;1.20;;;;;;;;;;5039746;28;24422;-44
2022/05/29 11:35:51;;;;;;;2.08;1.10;;;;;;;;;;5035153;28;24431;-46
2022/05/29 11:38:16;;;;;;;1.80;1.30;;;;;;;;;;5038179;28;24430;-46
2022/05/29 11:40:53;;;;;;;2.40;1.40;;;;;;;;;;5038745;28;25148;-48
2022/05/29 11:43:38;;;;;;;1.93;1.30;;;;;;;;;;5039998;28;24620;-49
2022/05/29 11:51:42;;;;;;;1.23;1.13;;;;;;;;;;5031472;28;24447;-42
2022/05/29 11:54:19;;;;;;;1.37;1.17;;;;;;;;;;5037096;28;24557;-45
2022/05/29 11:56:48;;;;;;;1.85;1.20;;;;;;;;;;5035471;28;25382;-43
2022/05/29 11:59:31;;;;;;;1.63;1.08;;;;;;;;;;5037695;28;24431;-43
2022/05/29 12:02:01;;;;;;;1.50;1.10;;;;;;;;;;5036731;28;24426;-43
2022/05/29 12:04:44;;;;;;;1.58;1.30;;;;;;;;;;5040471;28;24521;-43
2022/05/29 12:07:12;;;;;;;1.60;1.30;;;;;;;;;;5038885;28;24435;-43
2022/05/29 12:09:39;;;;;;;1.93;1.17;;;;;;;;;;5039915;28;24464;-43
2022/05/29 12:12:07;;;;;;;1.85;1.23;;;;;;;;;;5037980;28;24531;-46
2022/05/29 12:14:37;;;;;;;1.50;1.20;;;;;;;;;;5038611;28;24488;-46
2022/05/29 12:17:07;;;;;;;1.55;1.00;;;;;;;;;;5039136;28;24973;-46
2022/05/29 12:19:44;;;;;;;2.50;1.40;;;;;;;;;;5037653;28;24447;-46
2022/05/29 12:22:10;;;;;;;1.98;1.50;;;;;;;;;;5038241;28;24453;-46
2022/05/29 12:24:38;;;;;;;2.50;1.27;;;;;;;;;;5035689;28;24446;-46
2022/05/29 12:27:21;;;;;;;1.35;1.20;;;;;;;;;;5037366;28;24568;-43
2022/05/29 12:29:49;;;;;;;1.45;1.20;;;;;;;;;;5036691;28;24430;-43
2022/05/29 12:32:14;;;;;;;1.20;1.00;;;;;;;;;;5035186;28;24530;-43
2022/05/29 12:34:41;;;;;;;1.30;1.10;;;;;;;;;;5035009;28;24416;-44
2022/05/29 12:37:11;;;;;;;1.27;1.15;;;;;;;;;;5037172;28;24443;-44
2022/05/29 12:40:00;;;;;;;1.70;1.10;;;;;;;;;;5037030;28;24434;-44
2022/05/29 12:42:29;;;;;;;3.50;1.17;;;;;;;;;;5037528;28;25683;-46
2022/05/29 12:45:12;;;;;;;1.67;1.02;;;;;;;;;;5038990;28;24451;-45
2022/05/29 12:47:46;;;;;;;2.20;1.30;;;;;;;;;;5037850;28;24427;-44
2022/05/29 12:50:30;;;;;;;1.30;1.10;;;;;;;;;;5040540;28;24850;-44
2022/05/29 12:53:14;;;;;;;1.65;1.30;;;;;;;;;;5034909;28;24427;-44
2022/05/29 12:56:12;;;;;;;3.40;1.23;;;;;;;;;;5038534;28;24445;-44
2022/05/29 12:58:46;;;;;;;1.67;1.10;;;;;;;;;;4994974;28;24500;-44
2022/05/29 13:01:21;;;;;;;1.98;1.33;;;;;;;;;;5036012;28;24596;-44
2022/05/29 13:04:15;;;;;;;2.00;1.30;;;;;;;;;;5034069;28;24897;-44
2022/05/29 13:06:52;;;;;;;1.75;1.20;;;;;;;;;;5038973;28;24747;-43
2022/05/29 13:09:23;;;;;;;1.30;1.20;;;;;;;;;;5039024;28;25259;-44
2022/05/29 13:11:50;;;;;;;1.40;1.20;;;;;;;;;;5035228;28;24427;-44
2022/05/29 13:14:16;;;;;;;1.50;1.00;;;;;;;;;;5038543;28;24441;-44
2022/05/29 13:16:45;;;;;;;2.83;1.42;;;;;;;;;;5040349;28;24438;-44
2022/05/29 13:19:17;;;;;;;1.20;1.10;;;;;;;;;;5040560;28;24830;-45
2022/05/29 13:22:02;;;;;;;1.80;1.05;;;;;;;;;;5040592;28;24433;-44
2022/05/29 13:24:29;;;;;;;1.50;1.10;;;;;;;;;;5041009;28;25023;-43
2022/05/29 13:27:09;;;;;;;1.70;1.20;;;;;;;;;;5040352;28;24564;-44
2022/05/29 13:29:41;;;;;;;1.60;1.30;;;;;;;;;;5040225;28;24434;-43
2022/05/29 13:32:12;;;;;;;1.65;1.30;;;;;;;;;;5038911;28;24993;-46
2022/05/29 13:34:37;;;;;;;1.60;1.20;;;;;;;;;;5041263;28;24501;-46
2022/05/29 13:37:03;;;;;;;3.40;1.53;;;;;;;;;;5039958;28;24431;-46
2022/05/29 13:39:28;;;;;;;2.17;1.20;;;;;;;;;;5041030;28;24422;-44
2022/05/29 13:41:59;;;;;;;2.70;1.50;;;;;;;;;;5040319;28;25057;-46
2022/05/29 13:44:32;;;;;;;1.85;1.20;;;;;;;;;;5040974;28;24936;-44
2022/05/29 13:47:16;;;;;;;2.10;1.15;;;;;;;;;;5022069;28;24431;-44
2022/05/29 13:49:45;;;;;;;1.40;1.27;;;;;;;;;;5040661;28;24423;-44
2022/05/29 13:52:16;;;;;;;1.40;1.30;;;;;;;;;;5039396;28;27399;-44
2022/05/29 13:54:42;;;;;;;2.30;1.40;;;;;;;;;;5040798;28;24785;-44
2022/05/29 13:57:10;;;;;;;1.50;1.30;;;;;;;;;;5040133;28;24449;-44
2022/05/29 14:05:30;;;;;;;1.48;1.38;;;;;;;;;;5038691;28;25113;-44
2022/05/29 14:08:23;;;;;;;1.55;1.30;;;;;;;;;;5034007;28;24557;-44
2022/05/29 14:10:52;;;;;;;2.97;1.30;;;;;;;;;;5035491;28;24792;-44
2022/05/29 14:13:33;;;;;;;2.30;1.20;;;;;;;;;;5036871;28;24488;-44
2022/05/29 14:16:01;;;;;;;2.03;1.40;;;;;;;;;;5037439;28;24505;-44
2022/05/29 14:18:31;;;;;;;1.80;1.30;;;;;;;;;;5037128;28;24501;-45
2022/05/29 14:21:03;;;;;;;1.50;1.20;;;;;;;;;;5040791;28;24466;-44
2022/05/29 14:23:53;;;;;;;2.33;1.60;;;;;;;;;;5041460;28;24515;-44
2022/05/29 14:26:45;;;;;;;1.67;1.30;;;;;;;;;;5039406;28;24796;-44
2022/05/29 14:29:40;;;;;;;2.30;1.42;;;;;;;;;;5041537;28;24518;-44
2022/05/29 14:32:24;;;;;;;1.67;1.30;;;;;;;;;;5015323;28;24485;-44
2022/05/29 14:35:06;;;;;;;1.80;1.13;;;;;;;;;;5032341;28;27610;-44
2022/05/29 14:37:44;;;;;;;1.60;1.30;;;;;;;;;;5039583;28;24854;-44
2022/05/29 14:40:22;;;;;;;1.50;1.40;;;;;;;;;;5040143;28;24455;-45
2022/05/29 14:42:50;;;;;;;1.90;1.30;;;;;;;;;;5037975;28;24447;-45
2022/05/29 14:45:20;;;;;;;2.20;1.40;;;;;;;;;;5033137;28;24445;-45
2022/05/29 14:48:03;;;;;;;1.60;1.50;;;;;;;;;;5041315;28;24515;-45
2022/05/29 14:50:34;;;;;;;1.80;1.33;;;;;;;;;;5040724;28;24515;-45
2022/05/29 14:53:04;;;;;;;1.90;1.52;;;;;;;;;;5041873;28;24427;-45
2022/05/29 14:55:42;;;;;;;1.55;1.20;;;;;;;;;;5031945;28;24430;-47
2022/05/29 14:58:07;;;;;;;2.53;1.50;;;;;;;;;;5037130;28;24434;-46
2022/05/29 15:00:34;;;;;;;2.20;1.60;;;;;;;;;;5039583;28;24426;-45
2022/05/29 15:03:10;;;;;;;2.25;1.70;;;;;;;;;;5038106;28;24497;-45
2022/05/29 15:05:37;;;;;;;2.78;1.90;;;;;;;;;;5034790;28;24454;-44
2022/05/29 15:10:58;;;;;;;1.60;1.50;;;;;;;;;;5042127;28;24790;-44
2022/05/29 15:13:25;;;;;;;1.90;1.40;;;;;;;;;;5032357;28;24481;-44
2022/05/29 15:15:52;;;;;;;1.58;1.20;;;;;;;;;;5042514;28;24517;-44
2022/05/29 15:18:34;;;;;;;2.33;1.40;;;;;;;;;;5041736;28;24431;-46
2022/05/29 15:26:56;;;;;;;1.92;1.60;;;;;;;;;;5021693;28;24453;-46
2022/05/29 15:29:25;;;;;;;1.95;1.50;;;;;;;;;;5041292;28;24407;-46
2022/05/29 15:31:51;;;;;;;2.58;1.75;;;;;;;;;;5040991;28;24833;-47
2022/05/29 15:34:35;;;;;;;1.80;1.50;;;;;;;;;;5041350;28;24553;-44
2022/05/29 15:37:15;;;;;;;1.60;1.50;;;;;;;;;;5041667;28;24431;-44
2022/05/29 15:39:40;;;;;;;1.30;1.20;;;;;;;;;;5042618;28;24438;-44
2022/05/29 15:42:09;;;;;;;2.10;1.40;;;;;;;;;;5040571;28;24500;-45